ANA505 RJKA-RJOO
Flight info
| Callsign | ANA505 |
|---|---|
| Flight time | 1h 13m |
| Altitude | 35000 |
| Route | RURIK3 RURIK Y53 MADOG Y753 IZUMI HABIK |
| Aircraft | B738/M-SDE2E3FGHIRWXY/LB1 |
Departure
| Time | 2026-04-15 19:17 |
|---|---|
| Airport | Amami Airport (RJKA) |
Arrival
| Time | 2026-04-15 20:30 |
|---|---|
| Airport | Osaka Itami International Airport (RJOO) |
| Time | Latitude | Longitude | Altitude | Speed | Heading |
|---|---|---|---|---|---|
| 2026-04-15 18:57 | 28.43116 | 129.70902 | 26 ft | 0 kts | 296° |
| 2026-04-15 19:09 | 28.43105 | 129.70927 | 31 ft | 4 kts | 294° |
| 2026-04-15 19:09 | 28.43095 | 129.70955 | 25 ft | 4 kts | 292° |
| 2026-04-15 19:09 | 28.43085 | 129.70984 | 23 ft | 4 kts | 288° |
| 2026-04-15 19:09 | 28.43077 | 129.71013 | 25 ft | 4 kts | 282° |
| 2026-04-15 19:10 | 28.43074 | 129.71043 | 23 ft | 4 kts | 257° |
| 2026-04-15 19:10 | 28.43082 | 129.71060 | 23 ft | 0 kts | 206° |
| 2026-04-15 19:12 | 28.43078 | 129.71058 | 24 ft | 2 kts | 206° |
| 2026-04-15 19:12 | 28.43056 | 129.71046 | 23 ft | 6 kts | 206° |
| 2026-04-15 19:13 | 28.43004 | 129.71016 | 22 ft | 11 kts | 206° |
| 2026-04-15 19:13 | 28.42926 | 129.70974 | 23 ft | 13 kts | 205° |
| 2026-04-15 19:13 | 28.42846 | 129.70929 | 25 ft | 13 kts | 206° |
| 2026-04-15 19:13 | 28.42768 | 129.70886 | 26 ft | 12 kts | 206° |
| 2026-04-15 19:14 | 28.42691 | 129.70844 | 27 ft | 12 kts | 205° |
| 2026-04-15 19:14 | 28.42617 | 129.70803 | 29 ft | 12 kts | 206° |
| 2026-04-15 19:14 | 28.42544 | 129.70763 | 31 ft | 11 kts | 206° |
| 2026-04-15 19:14 | 28.42474 | 129.70724 | 33 ft | 11 kts | 206° |
| 2026-04-15 19:15 | 28.42406 | 129.70687 | 34 ft | 11 kts | 205° |
| 2026-04-15 19:15 | 28.42336 | 129.70666 | 34 ft | 10 kts | 166° |
| 2026-04-15 19:15 | 28.42298 | 129.70731 | 32 ft | 10 kts | 115° |
| 2026-04-15 19:15 | 28.42274 | 129.70794 | 35 ft | 6 kts | 106° |
| 2026-04-15 19:16 | 28.42295 | 129.70831 | 33 ft | 6 kts | 33° |
| 2026-04-15 19:16 | 28.42310 | 129.70840 | 34 ft | 0 kts | 26° |
| 2026-04-15 19:16 | 28.42311 | 129.70840 | 34 ft | 3 kts | 26° |
| 2026-04-15 19:16 | 28.42585 | 129.70991 | 28 ft | 86 kts | 26° |
| 2026-04-15 19:17 | 28.43360 | 129.71418 | 30 ft | 158 kts | 25° |
| 2026-04-15 19:17 | 28.44393 | 129.72011 | 722 ft | 168 kts | 24° |
| 2026-04-15 19:17 | 28.45484 | 129.72625 | 1551 ft | 185 kts | 23° |
| 2026-04-15 19:17 | 28.46669 | 129.73284 | 2288 ft | 189 kts | 24° |
| 2026-04-15 19:18 | 28.47839 | 129.73952 | 3102 ft | 190 kts | 24° |
| 2026-04-15 19:18 | 28.49056 | 129.74649 | 3682 ft | 200 kts | 24° |
| 2026-04-15 19:18 | 28.51637 | 129.76127 | 4633 ft | 220 kts | 23° |
| 2026-04-15 19:19 | 28.53055 | 129.76939 | 4986 ft | 236 kts | 23° |
| 2026-04-15 19:19 | 28.54582 | 129.77814 | 5359 ft | 255 kts | 23° |
| 2026-04-15 19:19 | 28.56191 | 129.78735 | 5833 ft | 270 kts | 24° |
| 2026-04-15 19:19 | 28.57909 | 129.79723 | 6498 ft | 278 kts | 23° |
| 2026-04-15 19:20 | 28.59643 | 129.80722 | 7266 ft | 281 kts | 22° |
| 2026-04-15 19:20 | 28.61403 | 129.81736 | 8020 ft | 285 kts | 22° |
| 2026-04-15 19:20 | 28.63179 | 129.82759 | 8787 ft | 288 kts | 21° |
| 2026-04-15 19:20 | 28.64981 | 129.83797 | 9545 ft | 292 kts | 21° |
| 2026-04-15 19:21 | 28.66816 | 129.84852 | 10108 ft | 301 kts | 21° |
| 2026-04-15 19:21 | 28.68724 | 129.85948 | 10598 ft | 312 kts | 21° |
| 2026-04-15 19:21 | 28.70697 | 129.87082 | 11093 ft | 323 kts | 21° |
| 2026-04-15 19:21 | 28.72731 | 129.88253 | 11596 ft | 332 kts | 21° |
| 2026-04-15 19:22 | 28.74821 | 129.89458 | 12099 ft | 342 kts | 21° |
| 2026-04-15 19:22 | 28.76962 | 129.90694 | 12693 ft | 347 kts | 21° |
| 2026-04-15 19:22 | 28.79128 | 129.91947 | 13371 ft | 351 kts | 21° |
| 2026-04-15 19:22 | 28.81313 | 129.93212 | 14009 ft | 354 kts | 21° |
| 2026-04-15 19:23 | 28.83521 | 129.94489 | 14586 ft | 358 kts | 21° |
| 2026-04-15 19:23 | 28.85756 | 129.95782 | 15158 ft | 362 kts | 21° |
| 2026-04-15 19:23 | 28.88018 | 129.97091 | 15737 ft | 366 kts | 21° |
| 2026-04-15 19:23 | 28.90306 | 129.98415 | 16323 ft | 370 kts | 21° |
| 2026-04-15 19:24 | 28.92578 | 129.99731 | 16881 ft | 373 kts | 21° |
| 2026-04-15 19:24 | 28.94905 | 130.01079 | 17425 ft | 377 kts | 21° |
| 2026-04-15 19:24 | 28.97292 | 130.02462 | 17968 ft | 382 kts | 21° |
| 2026-04-15 19:24 | 28.99671 | 130.03842 | 18456 ft | 386 kts | 21° |
| 2026-04-15 19:25 | 29.02045 | 130.05219 | 18925 ft | 389 kts | 21° |
| 2026-04-15 19:25 | 29.04466 | 130.06625 | 19416 ft | 392 kts | 21° |
| 2026-04-15 19:25 | 29.06903 | 130.08041 | 19897 ft | 395 kts | 21° |
| 2026-04-15 19:25 | 29.09362 | 130.09470 | 20372 ft | 398 kts | 21° |
| 2026-04-15 19:26 | 29.11845 | 130.10913 | 20828 ft | 402 kts | 21° |
| 2026-04-15 19:26 | 29.14345 | 130.12368 | 21302 ft | 405 kts | 21° |
| 2026-04-15 19:26 | 29.16862 | 130.13834 | 21785 ft | 408 kts | 21° |
| 2026-04-15 19:26 | 29.19404 | 130.15315 | 22239 ft | 411 kts | 21° |
| 2026-04-15 19:27 | 29.21964 | 130.16807 | 22690 ft | 414 kts | 21° |
| 2026-04-15 19:27 | 29.24538 | 130.18309 | 23143 ft | 417 kts | 21° |
| 2026-04-15 19:27 | 29.27135 | 130.19824 | 23576 ft | 420 kts | 21° |
| 2026-04-15 19:27 | 29.29741 | 130.21345 | 23984 ft | 421 kts | 21° |
| 2026-04-15 19:28 | 29.32282 | 130.22980 | 24337 ft | 427 kts | 25° |
| 2026-04-15 19:28 | 29.34804 | 130.24824 | 24685 ft | 432 kts | 27° |
| 2026-04-15 19:28 | 29.37318 | 130.26752 | 24996 ft | 437 kts | 28° |
| 2026-04-15 19:28 | 29.39857 | 130.28717 | 25280 ft | 442 kts | 27° |
| 2026-04-15 19:29 | 29.42419 | 130.30688 | 25619 ft | 444 kts | 27° |
| 2026-04-15 19:29 | 29.45000 | 130.32655 | 25986 ft | 446 kts | 27° |
| 2026-04-15 19:29 | 29.47597 | 130.34617 | 26319 ft | 449 kts | 26° |
| 2026-04-15 19:29 | 29.50217 | 130.36585 | 26630 ft | 451 kts | 26° |
| 2026-04-15 19:30 | 29.52858 | 130.38564 | 26941 ft | 454 kts | 26° |
| 2026-04-15 19:30 | 29.55511 | 130.40549 | 27262 ft | 457 kts | 26° |
| 2026-04-15 19:30 | 29.58182 | 130.42549 | 27569 ft | 460 kts | 26° |
| 2026-04-15 19:30 | 29.60869 | 130.44563 | 27897 ft | 462 kts | 26° |
| 2026-04-15 19:31 | 29.63570 | 130.46589 | 28195 ft | 465 kts | 25° |
| 2026-04-15 19:31 | 29.66284 | 130.48627 | 28482 ft | 467 kts | 25° |
| 2026-04-15 19:31 | 29.69020 | 130.50682 | 28753 ft | 470 kts | 25° |
| 2026-04-15 19:31 | 29.71729 | 130.52720 | 29030 ft | 473 kts | 25° |
| 2026-04-15 19:32 | 29.74494 | 130.54800 | 29311 ft | 475 kts | 25° |
| 2026-04-15 19:32 | 29.77269 | 130.56890 | 29573 ft | 478 kts | 25° |
| 2026-04-15 19:32 | 29.80061 | 130.58994 | 29852 ft | 481 kts | 25° |
| 2026-04-15 19:32 | 29.82867 | 130.61110 | 30071 ft | 484 kts | 25° |
| 2026-04-15 19:33 | 29.85687 | 130.63238 | 30283 ft | 486 kts | 25° |
| 2026-04-15 19:33 | 29.88521 | 130.65379 | 30515 ft | 488 kts | 25° |
| 2026-04-15 19:33 | 29.91368 | 130.67532 | 30739 ft | 489 kts | 25° |
| 2026-04-15 19:33 | 29.94221 | 130.69690 | 30947 ft | 491 kts | 25° |
| 2026-04-15 19:34 | 29.97083 | 130.71857 | 31203 ft | 492 kts | 25° |
| 2026-04-15 19:34 | 29.99943 | 130.74024 | 31526 ft | 491 kts | 24° |
| 2026-04-15 19:34 | 30.02793 | 130.76185 | 31848 ft | 490 kts | 24° |
| 2026-04-15 19:34 | 30.05644 | 130.78346 | 32113 ft | 491 kts | 24° |
| 2026-04-15 19:35 | 30.08501 | 130.80512 | 32359 ft | 492 kts | 24° |
| 2026-04-15 19:35 | 30.11360 | 130.82682 | 32622 ft | 492 kts | 24° |
| 2026-04-15 19:35 | 30.14222 | 130.84857 | 32931 ft | 492 kts | 24° |
| 2026-04-15 19:35 | 30.17044 | 130.87003 | 33177 ft | 492 kts | 24° |
| 2026-04-15 19:36 | 30.19911 | 130.89184 | 33417 ft | 493 kts | 24° |
| 2026-04-15 19:36 | 30.22777 | 130.91367 | 33679 ft | 492 kts | 24° |
| 2026-04-15 19:36 | 30.25636 | 130.93547 | 33974 ft | 491 kts | 24° |
| 2026-04-15 19:36 | 30.28490 | 130.95725 | 34212 ft | 491 kts | 24° |
| 2026-04-15 19:37 | 30.31347 | 130.97906 | 34425 ft | 492 kts | 23° |
| 2026-04-15 19:37 | 30.34205 | 131.00088 | 34615 ft | 492 kts | 23° |
| 2026-04-15 19:37 | 30.37061 | 131.02271 | 34850 ft | 492 kts | 23° |
| 2026-04-15 19:37 | 30.39916 | 131.04455 | 34929 ft | 494 kts | 23° |
| 2026-04-15 19:38 | 30.45666 | 131.08857 | 34966 ft | 496 kts | 23° |
| 2026-04-15 19:38 | 30.51396 | 131.13257 | 34921 ft | 490 kts | 23° |
| 2026-04-15 19:39 | 30.57035 | 131.17591 | 34931 ft | 488 kts | 23° |
| 2026-04-15 19:39 | 30.62691 | 131.21938 | 34960 ft | 488 kts | 23° |
| 2026-04-15 19:40 | 30.68350 | 131.26295 | 34931 ft | 488 kts | 23° |
| 2026-04-15 19:40 | 30.74011 | 131.30663 | 34924 ft | 488 kts | 23° |
| 2026-04-15 19:41 | 30.78755 | 131.34328 | 34958 ft | 489 kts | 22° |
| 2026-04-15 19:41 | 30.84389 | 131.38687 | 34928 ft | 489 kts | 23° |
| 2026-04-15 19:42 | 30.90056 | 131.43078 | 34922 ft | 489 kts | 23° |
| 2026-04-15 19:42 | 30.95729 | 131.47480 | 34950 ft | 490 kts | 22° |
| 2026-04-15 19:43 | 31.01406 | 131.51891 | 34930 ft | 490 kts | 22° |
| 2026-04-15 19:43 | 31.07085 | 131.56311 | 34907 ft | 490 kts | 22° |
| 2026-04-15 19:44 | 31.12757 | 131.60732 | 34917 ft | 490 kts | 23° |
| 2026-04-15 19:44 | 31.18426 | 131.65157 | 34923 ft | 490 kts | 23° |
| 2026-04-15 19:45 | 31.24056 | 131.69558 | 34923 ft | 490 kts | 23° |
| 2026-04-15 19:45 | 31.29720 | 131.73991 | 34933 ft | 490 kts | 22° |
| 2026-04-15 19:46 | 31.35389 | 131.78435 | 34919 ft | 490 kts | 22° |
| 2026-04-15 19:46 | 31.41058 | 131.82889 | 34924 ft | 490 kts | 22° |
| 2026-04-15 19:47 | 31.46724 | 131.87347 | 34928 ft | 491 kts | 22° |
| 2026-04-15 19:47 | 31.52383 | 131.91807 | 34931 ft | 490 kts | 22° |
| 2026-04-15 19:48 | 31.58047 | 131.96276 | 34941 ft | 490 kts | 22° |
| 2026-04-15 19:48 | 31.63666 | 132.00718 | 34919 ft | 490 kts | 22° |
| 2026-04-15 19:49 | 31.69322 | 132.05196 | 34924 ft | 490 kts | 22° |
| 2026-04-15 19:49 | 31.74972 | 132.09675 | 34957 ft | 490 kts | 22° |
| 2026-04-15 19:50 | 31.80627 | 132.14163 | 34933 ft | 490 kts | 22° |
| 2026-04-15 19:50 | 31.86272 | 132.18652 | 34924 ft | 490 kts | 22° |
| 2026-04-15 19:51 | 31.91923 | 132.23152 | 34936 ft | 490 kts | 22° |
| 2026-04-15 19:51 | 31.97571 | 132.27657 | 34926 ft | 490 kts | 22° |
| 2026-04-15 19:52 | 32.03186 | 132.32143 | 34925 ft | 490 kts | 22° |
| 2026-04-15 19:52 | 32.08835 | 132.36663 | 34928 ft | 491 kts | 23° |
| 2026-04-15 19:53 | 32.11544 | 132.39218 | 34910 ft | 505 kts | 33° |
| 2026-04-15 19:53 | 32.13966 | 132.42281 | 34918 ft | 517 kts | 43° |
| 2026-04-15 19:53 | 32.17953 | 132.49490 | 34949 ft | 527 kts | 51° |
| 2026-04-15 19:54 | 32.21722 | 132.56925 | 34919 ft | 527 kts | 51° |
| 2026-04-15 19:54 | 32.25527 | 132.64323 | 34908 ft | 526 kts | 50° |
| 2026-04-15 19:55 | 32.29370 | 132.71668 | 34941 ft | 525 kts | 50° |
| 2026-04-15 19:55 | 32.33219 | 132.78997 | 34918 ft | 524 kts | 50° |
| 2026-04-15 19:56 | 32.37035 | 132.86284 | 34913 ft | 524 kts | 50° |
| 2026-04-15 19:56 | 32.40860 | 132.93613 | 34947 ft | 523 kts | 51° |
| 2026-04-15 19:57 | 32.44682 | 133.00954 | 34917 ft | 523 kts | 51° |
| 2026-04-15 19:57 | 32.48495 | 133.08291 | 34903 ft | 522 kts | 50° |
| 2026-04-15 19:58 | 32.52297 | 133.15623 | 34909 ft | 522 kts | 51° |
| 2026-04-15 19:58 | 32.56093 | 133.22956 | 34893 ft | 521 kts | 51° |
| 2026-04-15 19:59 | 32.59882 | 133.30290 | 34903 ft | 521 kts | 51° |
| 2026-04-15 19:59 | 32.63637 | 133.37571 | 34923 ft | 521 kts | 51° |
| 2026-04-15 20:00 | 32.67408 | 133.44943 | 34904 ft | 522 kts | 51° |
| 2026-04-15 20:00 | 32.71119 | 133.52369 | 34908 ft | 523 kts | 52° |
| 2026-04-15 20:01 | 32.74828 | 133.59812 | 34874 ft | 525 kts | 52° |
| 2026-04-15 20:01 | 32.76698 | 133.63557 | 34613 ft | 528 kts | 52° |
| 2026-04-15 20:01 | 32.78567 | 133.67306 | 34390 ft | 526 kts | 52° |
| 2026-04-15 20:02 | 32.80424 | 133.71037 | 34159 ft | 521 kts | 52° |
| 2026-04-15 20:02 | 32.82266 | 133.74738 | 33935 ft | 519 kts | 52° |
| 2026-04-15 20:02 | 32.84077 | 133.78388 | 33730 ft | 518 kts | 52° |
| 2026-04-15 20:02 | 32.85905 | 133.82085 | 33478 ft | 517 kts | 52° |
| 2026-04-15 20:03 | 32.87721 | 133.85764 | 33206 ft | 515 kts | 52° |
| 2026-04-15 20:03 | 32.89530 | 133.89434 | 32948 ft | 514 kts | 52° |
| 2026-04-15 20:03 | 32.91338 | 133.93104 | 32699 ft | 513 kts | 53° |
| 2026-04-15 20:03 | 32.93139 | 133.96764 | 32453 ft | 512 kts | 53° |
| 2026-04-15 20:04 | 32.94934 | 134.00412 | 32234 ft | 510 kts | 53° |
| 2026-04-15 20:04 | 32.96726 | 134.04060 | 31981 ft | 509 kts | 53° |
| 2026-04-15 20:04 | 32.98513 | 134.07698 | 31732 ft | 509 kts | 53° |
| 2026-04-15 20:04 | 33.00296 | 134.11334 | 31487 ft | 508 kts | 53° |
| 2026-04-15 20:05 | 33.02077 | 134.14967 | 31245 ft | 507 kts | 53° |
| 2026-04-15 20:05 | 33.03856 | 134.18601 | 31042 ft | 507 kts | 53° |
| 2026-04-15 20:05 | 33.05706 | 134.22084 | 30794 ft | 500 kts | 46° |
| 2026-04-15 20:05 | 33.07908 | 134.25238 | 30548 ft | 490 kts | 37° |
| 2026-04-15 20:06 | 33.10410 | 134.27922 | 30325 ft | 481 kts | 31° |
| 2026-04-15 20:06 | 33.12971 | 134.30481 | 30095 ft | 480 kts | 31° |
| 2026-04-15 20:06 | 33.15540 | 134.33035 | 29843 ft | 480 kts | 31° |
| 2026-04-15 20:06 | 33.18096 | 134.35595 | 29611 ft | 479 kts | 32° |
| 2026-04-15 20:07 | 33.20631 | 134.38158 | 29334 ft | 477 kts | 32° |
| 2026-04-15 20:07 | 33.23157 | 134.40732 | 29059 ft | 475 kts | 32° |
| 2026-04-15 20:07 | 33.25658 | 134.43295 | 28775 ft | 473 kts | 32° |
| 2026-04-15 20:07 | 33.28147 | 134.45853 | 28510 ft | 471 kts | 32° |
| 2026-04-15 20:08 | 33.30621 | 134.48398 | 28285 ft | 468 kts | 32° |
| 2026-04-15 20:08 | 33.33085 | 134.50934 | 28013 ft | 465 kts | 32° |
| 2026-04-15 20:08 | 33.35528 | 134.53449 | 27755 ft | 462 kts | 32° |
| 2026-04-15 20:08 | 33.37962 | 134.55956 | 27499 ft | 459 kts | 32° |
| 2026-04-15 20:09 | 33.40344 | 134.58410 | 27246 ft | 457 kts | 32° |
| 2026-04-15 20:09 | 33.42745 | 134.60885 | 26978 ft | 453 kts | 32° |
| 2026-04-15 20:09 | 33.45118 | 134.63335 | 26542 ft | 449 kts | 32° |
| 2026-04-15 20:09 | 33.47473 | 134.65767 | 26106 ft | 445 kts | 32° |
| 2026-04-15 20:10 | 33.49806 | 134.68178 | 25673 ft | 441 kts | 32° |
| 2026-04-15 20:10 | 33.52122 | 134.70572 | 25231 ft | 438 kts | 32° |
| 2026-04-15 20:10 | 33.54420 | 134.72948 | 24796 ft | 435 kts | 32° |
| 2026-04-15 20:10 | 33.56708 | 134.75317 | 24349 ft | 433 kts | 32° |
| 2026-04-15 20:11 | 33.58992 | 134.77660 | 23889 ft | 430 kts | 30° |
| 2026-04-15 20:11 | 33.61406 | 134.79698 | 23418 ft | 419 kts | 22° |
| 2026-04-15 20:11 | 33.63887 | 134.81499 | 22922 ft | 414 kts | 21° |
| 2026-04-15 20:11 | 33.66331 | 134.83230 | 22452 ft | 411 kts | 21° |
| 2026-04-15 20:12 | 33.68782 | 134.84976 | 21972 ft | 408 kts | 22° |
| 2026-04-15 20:12 | 33.71210 | 134.86729 | 21536 ft | 405 kts | 22° |
| 2026-04-15 20:12 | 33.73613 | 134.88482 | 21088 ft | 403 kts | 22° |
| 2026-04-15 20:12 | 33.75994 | 134.90232 | 20643 ft | 400 kts | 22° |
| 2026-04-15 20:13 | 33.78361 | 134.91974 | 20180 ft | 398 kts | 23° |
| 2026-04-15 20:13 | 33.80715 | 134.93710 | 19732 ft | 396 kts | 23° |
| 2026-04-15 20:13 | 33.83060 | 134.95439 | 19285 ft | 395 kts | 24° |
| 2026-04-15 20:13 | 33.85397 | 134.97167 | 18806 ft | 394 kts | 24° |
| 2026-04-15 20:14 | 33.87732 | 134.98898 | 18353 ft | 392 kts | 24° |
| 2026-04-15 20:14 | 33.90051 | 135.00621 | 17863 ft | 391 kts | 24° |
| 2026-04-15 20:14 | 33.92357 | 135.02334 | 17390 ft | 388 kts | 25° |
| 2026-04-15 20:14 | 33.94644 | 135.04035 | 16935 ft | 385 kts | 25° |
| 2026-04-15 20:15 | 33.96910 | 135.05722 | 16488 ft | 381 kts | 25° |
| 2026-04-15 20:15 | 33.99157 | 135.07394 | 16059 ft | 378 kts | 25° |
| 2026-04-15 20:15 | 34.01362 | 135.09036 | 15629 ft | 375 kts | 26° |
| 2026-04-15 20:15 | 34.03577 | 135.10686 | 15209 ft | 372 kts | 26° |
| 2026-04-15 20:16 | 34.05772 | 135.12321 | 14754 ft | 370 kts | 26° |
| 2026-04-15 20:16 | 34.07951 | 135.13946 | 14325 ft | 367 kts | 27° |
| 2026-04-15 20:16 | 34.10116 | 135.15561 | 13926 ft | 363 kts | 27° |
| 2026-04-15 20:16 | 34.12256 | 135.17160 | 13468 ft | 361 kts | 27° |
| 2026-04-15 20:17 | 34.14381 | 135.18748 | 13021 ft | 358 kts | 27° |
| 2026-04-15 20:17 | 34.16492 | 135.20326 | 12582 ft | 355 kts | 27° |
| 2026-04-15 20:17 | 34.18587 | 135.21894 | 12149 ft | 352 kts | 27° |
| 2026-04-15 20:17 | 34.20635 | 135.23427 | 11732 ft | 349 kts | 27° |
| 2026-04-15 20:18 | 34.22683 | 135.24976 | 11433 ft | 343 kts | 28° |
| 2026-04-15 20:18 | 34.24629 | 135.26543 | 11363 ft | 330 kts | 30° |
| 2026-04-15 20:18 | 34.26490 | 135.28078 | 11284 ft | 318 kts | 30° |
| 2026-04-15 20:18 | 34.28284 | 135.29559 | 11209 ft | 307 kts | 29° |
| 2026-04-15 20:19 | 34.30016 | 135.30985 | 11130 ft | 295 kts | 29° |
| 2026-04-15 20:19 | 34.31688 | 135.32356 | 11061 ft | 285 kts | 29° |
| 2026-04-15 20:19 | 34.33304 | 135.33678 | 11002 ft | 275 kts | 29° |
| 2026-04-15 20:19 | 34.34877 | 135.34962 | 10802 ft | 272 kts | 29° |
| 2026-04-15 20:20 | 34.36441 | 135.36237 | 10538 ft | 271 kts | 29° |
| 2026-04-15 20:20 | 34.38001 | 135.37509 | 10282 ft | 269 kts | 29° |
| 2026-04-15 20:20 | 34.39550 | 135.38775 | 10038 ft | 268 kts | 29° |
| 2026-04-15 20:20 | 34.41090 | 135.40034 | 9769 ft | 267 kts | 30° |
| 2026-04-15 20:21 | 34.42625 | 135.41289 | 9495 ft | 265 kts | 30° |
| 2026-04-15 20:21 | 34.44085 | 135.42643 | 9211 ft | 268 kts | 44° |
| 2026-04-15 20:21 | 34.45083 | 135.44532 | 8953 ft | 270 kts | 56° |
| 2026-04-15 20:21 | 34.45979 | 135.46504 | 8617 ft | 266 kts | 56° |
| 2026-04-15 20:22 | 34.46879 | 135.48481 | 8231 ft | 263 kts | 56° |
| 2026-04-15 20:22 | 34.47745 | 135.50380 | 7846 ft | 260 kts | 56° |
| 2026-04-15 20:22 | 34.48618 | 135.52288 | 7443 ft | 257 kts | 56° |
| 2026-04-15 20:22 | 34.49480 | 135.54169 | 7070 ft | 253 kts | 56° |
| 2026-04-15 20:23 | 34.50331 | 135.56022 | 6693 ft | 250 kts | 56° |
| 2026-04-15 20:23 | 34.51174 | 135.57855 | 6323 ft | 247 kts | 56° |
| 2026-04-15 20:23 | 34.52007 | 135.59671 | 5894 ft | 246 kts | 56° |
| 2026-04-15 20:23 | 34.52827 | 135.61459 | 5682 ft | 240 kts | 56° |
| 2026-04-15 20:24 | 34.53628 | 135.63204 | 5532 ft | 233 kts | 54° |
| 2026-04-15 20:24 | 34.55983 | 135.65301 | 5266 ft | 206 kts | 11° |
| 2026-04-15 20:24 | 34.57397 | 135.65408 | 5081 ft | 202 kts | 0° |
| 2026-04-15 20:25 | 34.58804 | 135.65410 | 4815 ft | 201 kts | 0° |
| 2026-04-15 20:25 | 34.60190 | 135.65313 | 4560 ft | 200 kts | 345° |
| 2026-04-15 20:25 | 34.61331 | 135.64348 | 4354 ft | 204 kts | 319° |
| 2026-04-15 20:25 | 34.62337 | 135.63118 | 4106 ft | 207 kts | 321° |
| 2026-04-15 20:26 | 34.63355 | 135.61913 | 3851 ft | 207 kts | 322° |
| 2026-04-15 20:26 | 34.64406 | 135.60705 | 3580 ft | 209 kts | 322° |
| 2026-04-15 20:26 | 34.65440 | 135.59466 | 3303 ft | 210 kts | 321° |
| 2026-04-15 20:26 | 34.66473 | 135.58210 | 3021 ft | 210 kts | 321° |
| 2026-04-15 20:27 | 34.67521 | 135.56938 | 2737 ft | 211 kts | 320° |
| 2026-04-15 20:27 | 34.68560 | 135.55677 | 2467 ft | 209 kts | 320° |
| 2026-04-15 20:27 | 34.69551 | 135.54474 | 2184 ft | 200 kts | 320° |
| 2026-04-15 20:27 | 34.70512 | 135.53309 | 1935 ft | 189 kts | 319° |
| 2026-04-15 20:28 | 34.71416 | 135.52212 | 1703 ft | 178 kts | 319° |
| 2026-04-15 20:28 | 34.72270 | 135.51177 | 1458 ft | 168 kts | 319° |
| 2026-04-15 20:28 | 34.73070 | 135.50211 | 1292 ft | 152 kts | 319° |
| 2026-04-15 20:28 | 34.73811 | 135.49312 | 1106 ft | 151 kts | 319° |
| 2026-04-15 20:29 | 34.74588 | 135.48379 | 810 ft | 158 kts | 317° |
| 2026-04-15 20:29 | 34.75354 | 135.47440 | 580 ft | 155 kts | 316° |
| 2026-04-15 20:29 | 34.76105 | 135.46533 | 426 ft | 150 kts | 316° |
| 2026-04-15 20:29 | 34.76592 | 135.45942 | 299 ft | 149 kts | 315° |
| 2026-04-15 20:30 | 34.77560 | 135.44774 | 51 ft | 142 kts | 315° |
| 2026-04-15 20:30 | 34.78128 | 135.44084 | 49 ft | 84 kts | 315° |
| 2026-04-15 20:30 | 34.78389 | 135.43767 | 48 ft | 27 kts | 315° |
| 2026-04-15 20:30 | 34.78476 | 135.43662 | 49 ft | 26 kts | 315° |
| 2026-04-15 20:31 | 34.78619 | 135.43550 | 46 ft | 24 kts | 334° |
| 2026-04-15 20:31 | 34.78733 | 135.43484 | 48 ft | 9 kts | 335° |
| 2026-04-15 20:31 | 34.78788 | 135.43454 | 50 ft | 9 kts | 336° |
| 2026-04-15 20:31 | 34.78848 | 135.43429 | 49 ft | 10 kts | 347° |
| 2026-04-15 20:32 | 34.78923 | 135.43425 | 49 ft | 12 kts | 6° |
| 2026-04-15 20:32 | 34.79004 | 135.43457 | 48 ft | 12 kts | 27° |
| 2026-04-15 20:32 | 34.79066 | 135.43534 | 50 ft | 14 kts | 71° |
| 2026-04-15 20:32 | 34.79060 | 135.43655 | 49 ft | 14 kts | 94° |
| 2026-04-15 20:33 | 34.79043 | 135.43762 | 46 ft | 12 kts | 122° |
| 2026-04-15 20:33 | 34.78966 | 135.43856 | 48 ft | 12 kts | 134° |
| 2026-04-15 20:33 | 34.78929 | 135.43901 | 49 ft | 9 kts | 135° |
| 2026-04-15 20:33 | 34.78925 | 135.43970 | 49 ft | 9 kts | 62° |
| 2026-04-15 20:34 | 34.78949 | 135.44040 | 49 ft | 9 kts | 68° |
| 2026-04-15 20:34 | 34.78964 | 135.44087 | 49 ft | 1 kts | 68° |
| 2026-04-15 20:34 | 34.78966 | 135.44093 | 49 ft | 0 kts | 68° |